sensor_id;sensor_type;location;lat;lon;timestamp;P1;durP1;ratioP1;P2;durP2;ratioP2
76262;SDS011;65080;50.908;6.916;2023-02-22T00:02:05;79.43;;;23.30;;
76262;SDS011;65080;50.908;6.916;2023-02-22T00:04:52;64.60;;;23.23;;
76262;SDS011;65080;50.908;6.916;2023-02-22T00:07:21;70.37;;;26.57;;
76262;SDS011;65080;50.908;6.916;2023-02-22T00:09:50;76.83;;;25.37;;
76262;SDS011;65080;50.908;6.916;2023-02-22T00:12:18;93.67;;;25.60;;
76262;SDS011;65080;50.908;6.916;2023-02-22T00:14:48;235.43;;;29.17;;
76262;SDS011;65080;50.908;6.916;2023-02-22T00:17:17;61.90;;;23.77;;
76262;SDS011;65080;50.908;6.916;2023-02-22T00:19:47;69.00;;;24.47;;
76262;SDS011;65080;50.908;6.916;2023-02-22T00:22:15;123.50;;;26.23;;
76262;SDS011;65080;50.908;6.916;2023-02-22T00:24:44;162.63;;;29.17;;
76262;SDS011;65080;50.908;6.916;2023-02-22T00:27:13;154.77;;;28.47;;
76262;SDS011;65080;50.908;6.916;2023-02-22T00:29:43;78.30;;;22.97;;
76262;SDS011;65080;50.908;6.916;2023-02-22T00:32:13;68.03;;;22.27;;
76262;SDS011;65080;50.908;6.916;2023-02-22T00:34:42;72.17;;;22.03;;
76262;SDS011;65080;50.908;6.916;2023-02-22T00:37:10;54.97;;;20.47;;
76262;SDS011;65080;50.908;6.916;2023-02-22T00:39:39;63.87;;;20.13;;
76262;SDS011;65080;50.908;6.916;2023-02-22T00:42:07;83.70;;;20.73;;
76262;SDS011;65080;50.908;6.916;2023-02-22T00:44:35;41.33;;;20.23;;
76262;SDS011;65080;50.908;6.916;2023-02-22T00:47:03;73.57;;;21.10;;
76262;SDS011;65080;50.908;6.916;2023-02-22T00:49:33;86.23;;;22.10;;
76262;SDS011;65080;50.908;6.916;2023-02-22T00:52:02;47.67;;;21.87;;
76262;SDS011;65080;50.908;6.916;2023-02-22T00:54:31;59.97;;;22.77;;
76262;SDS011;65080;50.908;6.916;2023-02-22T00:56:59;62.90;;;20.30;;
76262;SDS011;65080;50.908;6.916;2023-02-22T00:59:28;66.40;;;23.67;;
76262;SDS011;65080;50.908;6.916;2023-02-22T01:01:57;44.60;;;21.93;;
76262;SDS011;65080;50.908;6.916;2023-02-22T01:04:25;73.23;;;23.60;;
76262;SDS011;65080;50.908;6.916;2023-02-22T01:06:55;114.57;;;22.60;;
76262;SDS011;65080;50.908;6.916;2023-02-22T01:09:25;51.33;;;22.13;;
76262;SDS011;65080;50.908;6.916;2023-02-22T01:11:54;50.50;;;21.80;;
76262;SDS011;65080;50.908;6.916;2023-02-22T01:14:24;65.47;;;24.20;;
76262;SDS011;65080;50.908;6.916;2023-02-22T01:16:53;71.03;;;23.30;;
76262;SDS011;65080;50.908;6.916;2023-02-22T01:19:23;152.80;;;25.00;;
76262;SDS011;65080;50.908;6.916;2023-02-22T01:21:51;72.07;;;23.13;;
76262;SDS011;65080;50.908;6.916;2023-02-22T01:24:21;72.97;;;23.27;;
76262;SDS011;65080;50.908;6.916;2023-02-22T01:26:50;88.43;;;26.77;;
76262;SDS011;65080;50.908;6.916;2023-02-22T01:29:19;92.93;;;27.10;;
76262;SDS011;65080;50.908;6.916;2023-02-22T01:31:51;115.97;;;25.67;;
76262;SDS011;65080;50.908;6.916;2023-02-22T01:34:21;165.93;;;29.50;;
76262;SDS011;65080;50.908;6.916;2023-02-22T01:36:51;145.00;;;28.30;;
76262;SDS011;65080;50.908;6.916;2023-02-22T01:39:20;102.50;;;29.10;;
76262;SDS011;65080;50.908;6.916;2023-02-22T01:41:49;90.90;;;27.60;;
76262;SDS011;65080;50.908;6.916;2023-02-22T01:44:21;85.80;;;25.23;;
76262;SDS011;65080;50.908;6.916;2023-02-22T01:46:55;74.00;;;25.77;;
76262;SDS011;65080;50.908;6.916;2023-02-22T01:49:25;108.93;;;27.90;;
76262;SDS011;65080;50.908;6.916;2023-02-22T01:51:56;109.63;;;30.07;;
76262;SDS011;65080;50.908;6.916;2023-02-22T01:54:30;70.10;;;26.17;;
76262;SDS011;65080;50.908;6.916;2023-02-22T01:57:02;98.17;;;29.37;;
76262;SDS011;65080;50.908;6.916;2023-02-22T01:59:35;77.07;;;29.10;;
76262;SDS011;65080;50.908;6.916;2023-02-22T02:02:06;81.63;;;27.30;;
76262;SDS011;65080;50.908;6.916;2023-02-22T02:04:34;68.83;;;25.67;;
76262;SDS011;65080;50.908;6.916;2023-02-22T02:07:04;117.03;;;28.27;;
76262;SDS011;65080;50.908;6.916;2023-02-22T02:09:38;67.33;;;27.40;;
76262;SDS011;65080;50.908;6.916;2023-02-22T02:12:11;64.67;;;25.40;;
76262;SDS011;65080;50.908;6.916;2023-02-22T02:14:43;137.13;;;27.27;;
76262;SDS011;65080;50.908;6.916;2023-02-22T02:17:12;105.83;;;27.83;;
76262;SDS011;65080;50.908;6.916;2023-02-22T02:19:49;79.63;;;26.73;;
76262;SDS011;65080;50.908;6.916;2023-02-22T02:22:30;83.47;;;26.47;;
76262;SDS011;65080;50.908;6.916;2023-02-22T02:25:14;115.27;;;26.07;;
76262;SDS011;65080;50.908;6.916;2023-02-22T02:31:20;68.63;;;24.67;;
76262;SDS011;65080;50.908;6.916;2023-02-22T02:34:12;101.57;;;27.57;;
76262;SDS011;65080;50.908;6.916;2023-02-22T02:36:49;147.67;;;27.70;;
76262;SDS011;65080;50.908;6.916;2023-02-22T02:39:24;65.30;;;24.90;;
76262;SDS011;65080;50.908;6.916;2023-02-22T02:41:56;80.73;;;26.30;;
76262;SDS011;65080;50.908;6.916;2023-02-22T02:44:28;80.53;;;27.20;;
76262;SDS011;65080;50.908;6.916;2023-02-22T02:47:00;55.27;;;23.67;;
76262;SDS011;65080;50.908;6.916;2023-02-22T02:49:35;82.27;;;24.73;;
76262;SDS011;65080;50.908;6.916;2023-02-22T02:52:08;91.17;;;24.93;;
76262;SDS011;65080;50.908;6.916;2023-02-22T02:54:39;57.10;;;23.87;;
76262;SDS011;65080;50.908;6.916;2023-02-22T02:57:09;61.77;;;25.27;;
76262;SDS011;65080;50.908;6.916;2023-02-22T02:59:37;58.53;;;26.40;;
76262;SDS011;65080;50.908;6.916;2023-02-22T03:02:11;72.23;;;24.57;;
76262;SDS011;65080;50.908;6.916;2023-02-22T03:05:01;88.80;;;25.93;;
76262;SDS011;65080;50.908;6.916;2023-02-22T03:07:44;73.93;;;23.83;;
76262;SDS011;65080;50.908;6.916;2023-02-22T03:13:13;66.87;;;22.87;;
76262;SDS011;65080;50.908;6.916;2023-02-22T03:15:49;61.43;;;21.57;;
76262;SDS011;65080;50.908;6.916;2023-02-22T03:18:23;69.40;;;22.53;;
76262;SDS011;65080;50.908;6.916;2023-02-22T03:20:58;58.53;;;21.23;;
76262;SDS011;65080;50.908;6.916;2023-02-22T03:23:38;83.03;;;21.03;;
76262;SDS011;65080;50.908;6.916;2023-02-22T03:26:12;93.70;;;21.80;;
76262;SDS011;65080;50.908;6.916;2023-02-22T03:28:45;133.23;;;20.90;;
76262;SDS011;65080;50.908;6.916;2023-02-22T03:31:16;144.23;;;22.53;;
76262;SDS011;65080;50.908;6.916;2023-02-22T03:33:50;58.90;;;19.60;;
76262;SDS011;65080;50.908;6.916;2023-02-22T03:36:24;88.33;;;20.30;;
76262;SDS011;65080;50.908;6.916;2023-02-22T03:41:24;53.20;;;19.80;;
76262;SDS011;65080;50.908;6.916;2023-02-22T03:43:56;53.73;;;20.93;;
76262;SDS011;65080;50.908;6.916;2023-02-22T03:46:27;42.57;;;18.67;;
76262;SDS011;65080;50.908;6.916;2023-02-22T03:48:58;39.33;;;20.23;;
76262;SDS011;65080;50.908;6.916;2023-02-22T03:51:30;32.77;;;18.97;;
76262;SDS011;65080;50.908;6.916;2023-02-22T03:53:59;35.13;;;16.97;;
76262;SDS011;65080;50.908;6.916;2023-02-22T03:56:28;72.47;;;19.93;;
76262;SDS011;65080;50.908;6.916;2023-02-22T03:59:02;41.10;;;20.60;;
76262;SDS011;65080;50.908;6.916;2023-02-22T04:01:31;39.30;;;19.23;;
76262;SDS011;65080;50.908;6.916;2023-02-22T04:04:01;40.60;;;18.67;;
76262;SDS011;65080;50.908;6.916;2023-02-22T04:06:31;44.93;;;17.83;;
76262;SDS011;65080;50.908;6.916;2023-02-22T04:08:59;63.60;;;17.47;;
76262;SDS011;65080;50.908;6.916;2023-02-22T04:11:27;35.63;;;16.33;;
76262;SDS011;65080;50.908;6.916;2023-02-22T04:13:56;46.67;;;18.60;;
76262;SDS011;65080;50.908;6.916;2023-02-22T04:16:24;40.33;;;18.40;;
76262;SDS011;65080;50.908;6.916;2023-02-22T04:18:52;75.10;;;18.37;;
76262;SDS011;65080;50.908;6.916;2023-02-22T04:21:21;79.47;;;19.13;;
76262;SDS011;65080;50.908;6.916;2023-02-22T04:23:51;49.97;;;17.37;;
76262;SDS011;65080;50.908;6.916;2023-02-22T04:26:19;45.87;;;18.10;;
76262;SDS011;65080;50.908;6.916;2023-02-22T04:28:47;54.90;;;19.17;;
76262;SDS011;65080;50.908;6.916;2023-02-22T04:31:15;33.37;;;17.20;;
76262;SDS011;65080;50.908;6.916;2023-02-22T04:33:44;36.37;;;19.07;;
76262;SDS011;65080;50.908;6.916;2023-02-22T04:36:13;29.37;;;15.97;;
76262;SDS011;65080;50.908;6.916;2023-02-22T04:38:41;31.33;;;15.90;;
76262;SDS011;65080;50.908;6.916;2023-02-22T04:41:12;36.27;;;15.80;;
76262;SDS011;65080;50.908;6.916;2023-02-22T04:43:41;30.53;;;16.20;;
76262;SDS011;65080;50.908;6.916;2023-02-22T04:46:09;30.60;;;16.47;;
76262;SDS011;65080;50.908;6.916;2023-02-22T04:48:38;28.30;;;15.10;;
76262;SDS011;65080;50.908;6.916;2023-02-22T04:51:06;33.80;;;16.63;;
76262;SDS011;65080;50.908;6.916;2023-02-22T04:53:35;30.13;;;15.70;;
76262;SDS011;65080;50.908;6.916;2023-02-22T04:56:03;28.27;;;16.20;;
76262;SDS011;65080;50.908;6.916;2023-02-22T04:58:34;29.27;;;15.87;;
76262;SDS011;65080;50.908;6.916;2023-02-22T05:01:02;30.27;;;17.43;;
76262;SDS011;65080;50.908;6.916;2023-02-22T05:03:31;36.87;;;17.60;;
76262;SDS011;65080;50.908;6.916;2023-02-22T05:05:59;30.00;;;16.47;;
76262;SDS011;65080;50.908;6.916;2023-02-22T05:08:27;38.50;;;17.60;;
76262;SDS011;65080;50.908;6.916;2023-02-22T05:10:56;33.07;;;15.87;;
76262;SDS011;65080;50.908;6.916;2023-02-22T05:13:24;38.77;;;18.30;;
76262;SDS011;65080;50.908;6.916;2023-02-22T05:15:54;30.07;;;16.97;;
76262;SDS011;65080;50.908;6.916;2023-02-22T05:18:22;39.23;;;18.40;;
76262;SDS011;65080;50.908;6.916;2023-02-22T05:20:50;39.67;;;18.20;;
76262;SDS011;65080;50.908;6.916;2023-02-22T05:23:18;38.50;;;17.90;;
76262;SDS011;65080;50.908;6.916;2023-02-22T05:25:46;33.90;;;17.77;;
76262;SDS011;65080;50.908;6.916;2023-02-22T05:28:15;39.97;;;18.17;;
76262;SDS011;65080;50.908;6.916;2023-02-22T05:30:44;36.27;;;18.20;;
76262;SDS011;65080;50.908;6.916;2023-02-22T05:33:13;36.13;;;16.70;;
76262;SDS011;65080;50.908;6.916;2023-02-22T05:35:42;34.00;;;16.87;;
76262;SDS011;65080;50.908;6.916;2023-02-22T05:38:12;26.83;;;16.17;;
76262;SDS011;65080;50.908;6.916;2023-02-22T05:40:40;46.23;;;18.63;;
76262;SDS011;65080;50.908;6.916;2023-02-22T05:43:09;34.83;;;17.10;;
76262;SDS011;65080;50.908;6.916;2023-02-22T05:45:37;32.13;;;17.50;;
76262;SDS011;65080;50.908;6.916;2023-02-22T05:48:06;30.07;;;16.90;;
76262;SDS011;65080;50.908;6.916;2023-02-22T05:50:36;29.73;;;15.20;;
76262;SDS011;65080;50.908;6.916;2023-02-22T05:53:04;23.70;;;13.87;;
76262;SDS011;65080;50.908;6.916;2023-02-22T05:55:33;28.70;;;15.37;;
76262;SDS011;65080;50.908;6.916;2023-02-22T05:58:01;33.17;;;18.13;;
76262;SDS011;65080;50.908;6.916;2023-02-22T06:00:31;47.27;;;18.23;;
76262;SDS011;65080;50.908;6.916;2023-02-22T06:03:00;35.73;;;18.63;;
76262;SDS011;65080;50.908;6.916;2023-02-22T06:05:30;36.03;;;17.93;;
76262;SDS011;65080;50.908;6.916;2023-02-22T06:08:00;39.33;;;19.70;;
76262;SDS011;65080;50.908;6.916;2023-02-22T06:10:29;33.40;;;18.47;;
76262;SDS011;65080;50.908;6.916;2023-02-22T06:12:58;37.90;;;19.50;;
76262;SDS011;65080;50.908;6.916;2023-02-22T06:15:27;35.60;;;18.03;;
76262;SDS011;65080;50.908;6.916;2023-02-22T06:17:56;46.90;;;19.03;;
76262;SDS011;65080;50.908;6.916;2023-02-22T06:20:26;45.37;;;23.77;;
76262;SDS011;65080;50.908;6.916;2023-02-22T06:22:55;41.67;;;20.37;;
76262;SDS011;65080;50.908;6.916;2023-02-22T06:25:26;42.07;;;19.67;;
76262;SDS011;65080;50.908;6.916;2023-02-22T06:27:57;46.73;;;20.37;;
76262;SDS011;65080;50.908;6.916;2023-02-22T06:30:27;77.93;;;19.10;;
76262;SDS011;65080;50.908;6.916;2023-02-22T06:32:56;70.63;;;19.23;;
76262;SDS011;65080;50.908;6.916;2023-02-22T06:35:24;42.37;;;19.50;;
76262;SDS011;65080;50.908;6.916;2023-02-22T06:37:52;45.80;;;19.00;;
76262;SDS011;65080;50.908;6.916;2023-02-22T06:40:21;57.10;;;20.10;;
76262;SDS011;65080;50.908;6.916;2023-02-22T06:42:50;37.23;;;20.27;;
76262;SDS011;65080;50.908;6.916;2023-02-22T06:45:19;37.47;;;18.77;;
76262;SDS011;65080;50.908;6.916;2023-02-22T06:47:48;42.90;;;20.27;;
76262;SDS011;65080;50.908;6.916;2023-02-22T06:50:17;29.80;;;14.80;;
76262;SDS011;65080;50.908;6.916;2023-02-22T06:52:47;28.37;;;16.03;;
76262;SDS011;65080;50.908;6.916;2023-02-22T06:55:17;27.67;;;15.27;;
76262;SDS011;65080;50.908;6.916;2023-02-22T06:57:46;23.60;;;14.23;;
76262;SDS011;65080;50.908;6.916;2023-02-22T07:00:16;21.57;;;13.57;;
76262;SDS011;65080;50.908;6.916;2023-02-22T07:02:46;21.00;;;12.30;;
76262;SDS011;65080;50.908;6.916;2023-02-22T07:05:15;22.63;;;12.60;;
76262;SDS011;65080;50.908;6.916;2023-02-22T07:07:45;22.13;;;13.07;;
76262;SDS011;65080;50.908;6.916;2023-02-22T07:10:16;19.60;;;12.37;;
76262;SDS011;65080;50.908;6.916;2023-02-22T07:12:46;19.17;;;12.00;;
76262;SDS011;65080;50.908;6.916;2023-02-22T07:15:17;19.40;;;12.50;;
76262;SDS011;65080;50.908;6.916;2023-02-22T07:17:47;22.50;;;13.80;;
76262;SDS011;65080;50.908;6.916;2023-02-22T07:20:15;21.30;;;13.30;;
76262;SDS011;65080;50.908;6.916;2023-02-22T07:22:46;19.90;;;13.50;;
76262;SDS011;65080;50.908;6.916;2023-02-22T07:25:15;19.70;;;12.80;;
76262;SDS011;65080;50.908;6.916;2023-02-22T07:27:44;20.53;;;14.00;;
76262;SDS011;65080;50.908;6.916;2023-02-22T07:30:19;19.13;;;11.40;;
76262;SDS011;65080;50.908;6.916;2023-02-22T07:32:51;20.70;;;12.50;;
76262;SDS011;65080;50.908;6.916;2023-02-22T07:35:22;21.13;;;12.07;;
76262;SDS011;65080;50.908;6.916;2023-02-22T07:37:51;23.00;;;13.17;;
76262;SDS011;65080;50.908;6.916;2023-02-22T07:40:22;19.73;;;12.43;;
76262;SDS011;65080;50.908;6.916;2023-02-22T07:42:52;20.80;;;13.23;;
76262;SDS011;65080;50.908;6.916;2023-02-22T07:45:24;20.53;;;13.00;;
76262;SDS011;65080;50.908;6.916;2023-02-22T07:47:53;23.07;;;13.00;;
76262;SDS011;65080;50.908;6.916;2023-02-22T07:50:22;21.20;;;13.93;;
76262;SDS011;65080;50.908;6.916;2023-02-22T07:52:52;20.27;;;13.03;;
76262;SDS011;65080;50.908;6.916;2023-02-22T07:55:22;21.00;;;12.97;;
76262;SDS011;65080;50.908;6.916;2023-02-22T07:57:52;23.37;;;12.70;;
76262;SDS011;65080;50.908;6.916;2023-02-22T08:00:22;20.70;;;13.30;;
76262;SDS011;65080;50.908;6.916;2023-02-22T08:02:54;17.00;;;12.53;;
76262;SDS011;65080;50.908;6.916;2023-02-22T08:05:24;20.90;;;12.00;;
76262;SDS011;65080;50.908;6.916;2023-02-22T08:07:53;23.27;;;13.63;;
76262;SDS011;65080;50.908;6.916;2023-02-22T08:10:22;22.20;;;12.13;;
76262;SDS011;65080;50.908;6.916;2023-02-22T08:12:53;19.10;;;12.70;;
76262;SDS011;65080;50.908;6.916;2023-02-22T08:15:22;21.97;;;13.47;;
76262;SDS011;65080;50.908;6.916;2023-02-22T08:17:55;19.27;;;12.67;;
76262;SDS011;65080;50.908;6.916;2023-02-22T08:20:24;17.43;;;11.17;;
76262;SDS011;65080;50.908;6.916;2023-02-22T08:22:53;23.23;;;12.90;;
76262;SDS011;65080;50.908;6.916;2023-02-22T08:25:23;18.30;;;11.93;;
76262;SDS011;65080;50.908;6.916;2023-02-22T08:27:55;19.57;;;12.53;;
76262;SDS011;65080;50.908;6.916;2023-02-22T08:30:28;21.07;;;12.70;;
76262;SDS011;65080;50.908;6.916;2023-02-22T08:32:58;19.77;;;12.37;;
76262;SDS011;65080;50.908;6.916;2023-02-22T08:35:28;22.33;;;13.00;;
76262;SDS011;65080;50.908;6.916;2023-02-22T08:37:59;17.03;;;11.93;;
76262;SDS011;65080;50.908;6.916;2023-02-22T08:40:29;19.27;;;13.90;;
76262;SDS011;65080;50.908;6.916;2023-02-22T08:42:59;17.77;;;12.30;;
76262;SDS011;65080;50.908;6.916;2023-02-22T08:45:29;21.00;;;12.97;;
76262;SDS011;65080;50.908;6.916;2023-02-22T08:47:57;20.53;;;13.50;;
76262;SDS011;65080;50.908;6.916;2023-02-22T08:50:27;17.93;;;12.20;;
76262;SDS011;65080;50.908;6.916;2023-02-22T08:52:58;18.20;;;12.80;;
76262;SDS011;65080;50.908;6.916;2023-02-22T08:55:28;19.27;;;11.80;;
76262;SDS011;65080;50.908;6.916;2023-02-22T08:57:58;19.10;;;12.40;;
76262;SDS011;65080;50.908;6.916;2023-02-22T09:00:30;18.07;;;12.37;;
76262;SDS011;65080;50.908;6.916;2023-02-22T09:03:00;20.10;;;13.50;;
76262;SDS011;65080;50.908;6.916;2023-02-22T09:05:30;20.67;;;13.00;;
76262;SDS011;65080;50.908;6.916;2023-02-22T09:07:58;21.03;;;13.77;;
76262;SDS011;65080;50.908;6.916;2023-02-22T09:10:28;21.00;;;13.43;;
76262;SDS011;65080;50.908;6.916;2023-02-22T09:12:58;22.23;;;13.97;;
76262;SDS011;65080;50.908;6.916;2023-02-22T09:15:28;21.07;;;13.70;;
76262;SDS011;65080;50.908;6.916;2023-02-22T09:17:58;23.03;;;13.80;;
76262;SDS011;65080;50.908;6.916;2023-02-22T09:20:27;18.93;;;13.30;;
76262;SDS011;65080;50.908;6.916;2023-02-22T09:22:56;20.37;;;12.70;;
76262;SDS011;65080;50.908;6.916;2023-02-22T09:25:25;24.67;;;14.33;;
76262;SDS011;65080;50.908;6.916;2023-02-22T09:27:54;25.40;;;15.23;;
76262;SDS011;65080;50.908;6.916;2023-02-22T09:30:25;21.67;;;13.00;;
76262;SDS011;65080;50.908;6.916;2023-02-22T09:33:00;20.73;;;13.23;;
76262;SDS011;65080;50.908;6.916;2023-02-22T09:35:29;17.77;;;13.27;;
76262;SDS011;65080;50.908;6.916;2023-02-22T09:38:02;25.50;;;16.17;;
76262;SDS011;65080;50.908;6.916;2023-02-22T09:40:33;23.00;;;14.23;;
76262;SDS011;65080;50.908;6.916;2023-02-22T09:43:22;22.97;;;14.03;;
76262;SDS011;65080;50.908;6.916;2023-02-22T09:46:04;20.10;;;13.63;;
76262;SDS011;65080;50.908;6.916;2023-02-22T09:48:47;23.87;;;15.57;;
76262;SDS011;65080;50.908;6.916;2023-02-22T09:51:27;18.43;;;13.07;;
76262;SDS011;65080;50.908;6.916;2023-02-22T09:54:03;23.93;;;15.13;;
76262;SDS011;65080;50.908;6.916;2023-02-22T09:56:40;22.53;;;14.47;;
76262;SDS011;65080;50.908;6.916;2023-02-22T09:59:11;22.10;;;13.40;;
76262;SDS011;65080;50.908;6.916;2023-02-22T10:01:47;17.87;;;12.60;;
76262;SDS011;65080;50.908;6.916;2023-02-22T10:04:23;21.97;;;14.20;;
76262;SDS011;65080;50.908;6.916;2023-02-22T10:07:02;24.63;;;13.20;;
76262;SDS011;65080;50.908;6.916;2023-02-22T10:09:33;19.40;;;13.10;;
76262;SDS011;65080;50.908;6.916;2023-02-22T10:12:09;20.30;;;13.47;;
76262;SDS011;65080;50.908;6.916;2023-02-22T10:14:53;19.73;;;13.73;;
76262;SDS011;65080;50.908;6.916;2023-02-22T10:17:38;22.23;;;12.80;;
76262;SDS011;65080;50.908;6.916;2023-02-22T10:20:19;26.77;;;14.80;;
76262;SDS011;65080;50.908;6.916;2023-02-22T10:23:00;18.10;;;13.00;;
76262;SDS011;65080;50.908;6.916;2023-02-22T10:25:37;20.30;;;13.20;;
76262;SDS011;65080;50.908;6.916;2023-02-22T10:28:09;24.00;;;14.00;;
76262;SDS011;65080;50.908;6.916;2023-02-22T10:30:42;22.93;;;14.03;;
76262;SDS011;65080;50.908;6.916;2023-02-22T10:33:20;22.63;;;13.00;;
76262;SDS011;65080;50.908;6.916;2023-02-22T10:35:53;21.43;;;14.70;;
76262;SDS011;65080;50.908;6.916;2023-02-22T10:38:23;19.20;;;12.70;;
76262;SDS011;65080;50.908;6.916;2023-02-22T10:40:53;20.30;;;12.50;;
76262;SDS011;65080;50.908;6.916;2023-02-22T10:43:23;20.03;;;13.30;;
76262;SDS011;65080;50.908;6.916;2023-02-22T10:45:52;19.73;;;14.00;;
76262;SDS011;65080;50.908;6.916;2023-02-22T10:48:23;21.27;;;15.00;;
76262;SDS011;65080;50.908;6.916;2023-02-22T10:50:57;20.90;;;13.63;;
76262;SDS011;65080;50.908;6.916;2023-02-22T10:53:28;20.30;;;12.23;;
76262;SDS011;65080;50.908;6.916;2023-02-22T10:56:08;22.00;;;13.10;;
76262;SDS011;65080;50.908;6.916;2023-02-22T10:58:40;15.80;;;12.33;;
76262;SDS011;65080;50.908;6.916;2023-02-22T11:01:18;18.70;;;11.77;;
76262;SDS011;65080;50.908;6.916;2023-02-22T11:06:47;18.80;;;10.87;;
76262;SDS011;65080;50.908;6.916;2023-02-22T11:09:41;15.03;;;10.40;;
76262;SDS011;65080;50.908;6.916;2023-02-22T11:12:16;16.80;;;10.17;;
76262;SDS011;65080;50.908;6.916;2023-02-22T11:14:47;16.90;;;10.20;;
76262;SDS011;65080;50.908;6.916;2023-02-22T11:17:17;15.50;;;11.37;;
76262;SDS011;65080;50.908;6.916;2023-02-22T11:19:51;16.70;;;10.10;;
76262;SDS011;65080;50.908;6.916;2023-02-22T11:22:21;14.13;;;9.73;;
76262;SDS011;65080;50.908;6.916;2023-02-22T11:24:54;14.37;;;9.20;;
76262;SDS011;65080;50.908;6.916;2023-02-22T11:27:27;14.77;;;9.80;;
76262;SDS011;65080;50.908;6.916;2023-02-22T11:30:06;13.47;;;9.90;;
76262;SDS011;65080;50.908;6.916;2023-02-22T11:32:42;14.40;;;9.10;;
76262;SDS011;65080;50.908;6.916;2023-02-22T11:35:16;15.50;;;9.50;;
76262;SDS011;65080;50.908;6.916;2023-02-22T11:37:48;14.80;;;8.17;;
76262;SDS011;65080;50.908;6.916;2023-02-22T11:40:18;11.27;;;8.10;;
76262;SDS011;65080;50.908;6.916;2023-02-22T11:42:48;12.37;;;8.50;;
76262;SDS011;65080;50.908;6.916;2023-02-22T11:45:33;11.33;;;7.37;;
76262;SDS011;65080;50.908;6.916;2023-02-22T11:48:06;10.70;;;7.80;;
76262;SDS011;65080;50.908;6.916;2023-02-22T11:50:38;13.10;;;8.23;;
76262;SDS011;65080;50.908;6.916;2023-02-22T11:53:24;12.03;;;6.87;;
76262;SDS011;65080;50.908;6.916;2023-02-22T11:56:05;11.70;;;7.90;;
76262;SDS011;65080;50.908;6.916;2023-02-22T11:58:43;9.43;;;7.13;;
76262;SDS011;65080;50.908;6.916;2023-02-22T12:01:20;12.07;;;6.87;;
76262;SDS011;65080;50.908;6.916;2023-02-22T12:07:22;10.80;;;6.47;;
76262;SDS011;65080;50.908;6.916;2023-02-22T12:10:02;13.17;;;7.40;;
76262;SDS011;65080;50.908;6.916;2023-02-22T12:12:51;10.03;;;6.30;;
76262;SDS011;65080;50.908;6.916;2023-02-22T12:15:27;12.03;;;6.83;;
76262;SDS011;65080;50.908;6.916;2023-02-22T12:18:01;8.73;;;6.20;;
76262;SDS011;65080;50.908;6.916;2023-02-22T12:20:37;8.93;;;6.07;;
76262;SDS011;65080;50.908;6.916;2023-02-22T12:23:12;11.33;;;6.20;;
76262;SDS011;65080;50.908;6.916;2023-02-22T12:25:53;10.30;;;6.80;;
76262;SDS011;65080;50.908;6.916;2023-02-22T12:28:26;9.07;;;6.20;;
76262;SDS011;65080;50.908;6.916;2023-02-22T12:31:02;12.60;;;7.03;;
76262;SDS011;65080;50.908;6.916;2023-02-22T12:33:41;11.13;;;6.53;;
76262;SDS011;65080;50.908;6.916;2023-02-22T12:36:17;10.43;;;6.70;;
76262;SDS011;65080;50.908;6.916;2023-02-22T12:38:49;10.20;;;6.97;;
76262;SDS011;65080;50.908;6.916;2023-02-22T12:41:27;8.70;;;5.70;;
76262;SDS011;65080;50.908;6.916;2023-02-22T12:44:01;8.27;;;6.17;;
76262;SDS011;65080;50.908;6.916;2023-02-22T12:46:36;8.87;;;5.93;;
76262;SDS011;65080;50.908;6.916;2023-02-22T12:49:11;12.40;;;5.90;;
76262;SDS011;65080;50.908;6.916;2023-02-22T12:51:45;14.27;;;6.30;;
76262;SDS011;65080;50.908;6.916;2023-02-22T12:54:19;9.30;;;5.97;;
76262;SDS011;65080;50.908;6.916;2023-02-22T12:56:54;13.07;;;7.13;;
76262;SDS011;65080;50.908;6.916;2023-02-22T12:59:28;10.27;;;6.77;;
76262;SDS011;65080;50.908;6.916;2023-02-22T13:02:00;10.30;;;6.97;;
76262;SDS011;65080;50.908;6.916;2023-02-22T13:04:37;8.10;;;5.63;;
76262;SDS011;65080;50.908;6.916;2023-02-22T13:07:10;10.97;;;6.17;;
76262;SDS011;65080;50.908;6.916;2023-02-22T13:12:54;9.10;;;5.97;;
76262;SDS011;65080;50.908;6.916;2023-02-22T13:15:31;10.00;;;6.30;;
76262;SDS011;65080;50.908;6.916;2023-02-22T13:18:08;9.37;;;7.17;;
76262;SDS011;65080;50.908;6.916;2023-02-22T13:20:42;9.47;;;6.70;;
76262;SDS011;65080;50.908;6.916;2023-02-22T13:23:16;10.33;;;6.40;;
76262;SDS011;65080;50.908;6.916;2023-02-22T13:25:52;10.70;;;7.07;;
76262;SDS011;65080;50.908;6.916;2023-02-22T13:28:28;9.13;;;6.13;;
76262;SDS011;65080;50.908;6.916;2023-02-22T13:31:09;10.37;;;6.50;;
76262;SDS011;65080;50.908;6.916;2023-02-22T13:33:53;10.67;;;5.80;;
76262;SDS011;65080;50.908;6.916;2023-02-22T13:36:35;9.43;;;6.27;;
76262;SDS011;65080;50.908;6.916;2023-02-22T13:42:12;11.53;;;6.97;;
76262;SDS011;65080;50.908;6.916;2023-02-22T13:44:55;11.10;;;6.50;;
76262;SDS011;65080;50.908;6.916;2023-02-22T13:47:56;11.30;;;6.83;;
76262;SDS011;65080;50.908;6.916;2023-02-22T13:50:39;10.40;;;7.20;;
76262;SDS011;65080;50.908;6.916;2023-02-22T13:53:20;7.97;;;6.30;;
76262;SDS011;65080;50.908;6.916;2023-02-22T13:55:52;11.30;;;6.57;;
76262;SDS011;65080;50.908;6.916;2023-02-22T13:58:24;8.90;;;5.90;;
76262;SDS011;65080;50.908;6.916;2023-02-22T14:00:55;10.93;;;7.00;;
76262;SDS011;65080;50.908;6.916;2023-02-22T14:03:35;10.17;;;6.60;;
76262;SDS011;65080;50.908;6.916;2023-02-22T14:06:08;10.50;;;6.10;;
76262;SDS011;65080;50.908;6.916;2023-02-22T14:08:45;10.20;;;6.90;;
76262;SDS011;65080;50.908;6.916;2023-02-22T14:14:19;11.10;;;7.40;;
76262;SDS011;65080;50.908;6.916;2023-02-22T14:25:54;17.53;;;6.17;;
76262;SDS011;65080;50.908;6.916;2023-02-22T14:31:19;10.50;;;6.60;;
76262;SDS011;65080;50.908;6.916;2023-02-22T14:34:03;10.07;;;6.90;;
76262;SDS011;65080;50.908;6.916;2023-02-22T14:36:37;9.60;;;6.40;;
76262;SDS011;65080;50.908;6.916;2023-02-22T14:39:18;11.97;;;6.40;;
76262;SDS011;65080;50.908;6.916;2023-02-22T14:42:01;11.13;;;6.20;;
76262;SDS011;65080;50.908;6.916;2023-02-22T14:44:33;10.97;;;5.90;;
76262;SDS011;65080;50.908;6.916;2023-02-22T14:47:08;12.13;;;6.17;;
76262;SDS011;65080;50.908;6.916;2023-02-22T14:49:46;10.07;;;6.33;;
76262;SDS011;65080;50.908;6.916;2023-02-22T14:52:20;9.20;;;5.90;;
76262;SDS011;65080;50.908;6.916;2023-02-22T14:54:54;12.60;;;7.47;;
76262;SDS011;65080;50.908;6.916;2023-02-22T14:57:32;8.17;;;6.47;;
76262;SDS011;65080;50.908;6.916;2023-02-22T15:00:13;11.33;;;6.77;;
76262;SDS011;65080;50.908;6.916;2023-02-22T15:02:46;8.97;;;6.47;;
76262;SDS011;65080;50.908;6.916;2023-02-22T15:05:18;11.67;;;6.63;;
76262;SDS011;65080;50.908;6.916;2023-02-22T15:07:52;10.93;;;7.00;;
76262;SDS011;65080;50.908;6.916;2023-02-22T15:10:23;9.03;;;6.03;;
76262;SDS011;65080;50.908;6.916;2023-02-22T15:12:55;9.33;;;6.50;;
76262;SDS011;65080;50.908;6.916;2023-02-22T15:15:35;9.53;;;6.33;;
76262;SDS011;65080;50.908;6.916;2023-02-22T15:18:09;9.40;;;5.60;;
76262;SDS011;65080;50.908;6.916;2023-02-22T15:20:45;10.77;;;6.37;;
76262;SDS011;65080;50.908;6.916;2023-02-22T15:23:24;10.97;;;7.00;;
76262;SDS011;65080;50.908;6.916;2023-02-22T15:25:56;9.23;;;6.23;;
76262;SDS011;65080;50.908;6.916;2023-02-22T15:28:25;7.80;;;5.67;;
76262;SDS011;65080;50.908;6.916;2023-02-22T15:31:12;8.83;;;6.30;;
76262;SDS011;65080;50.908;6.916;2023-02-22T15:33:43;8.80;;;6.03;;